Time;durP1;ratioP1;P1;durP2;ratioP2;P2;SDS_P1;SDS_P2;PMS_P1;PMS_P2;Temp;Humidity;BMP_temperature;BMP_pressure;BME280_temperature;BME280_humidity;BME280_pressure;Samples;Min_cycle;Max_cycle;Signal;HPM_P1;HPM_P2
2020/12/02 00:01:28;;;;;;;;;;;28.10;44.40;;;;;;5095905;28;19989;-48
2020/12/02 00:03:55;;;;;;;;;;;28.00;45.10;;;;;;5095460;28;19931;-54
2020/12/02 00:06:20;;;;;;;;;;;28.00;42.70;;;;;;5093895;28;19920;-53
2020/12/02 00:08:47;;;;;;;;;;;27.00;35.70;;;;;;5095404;28;19999;-52
2020/12/02 00:11:12;;;;;;;;;;;26.80;40.70;;;;;;5095414;28;19918;-47
2020/12/02 00:13:40;;;;;;;;;;;27.00;41.80;;;;;;5095430;28;20277;-49
2020/12/02 00:16:05;;;;;;;;;;;27.20;42.00;;;;;;5095245;28;19915;-47
2020/12/02 00:18:31;;;;;;;;;;;27.40;42.00;;;;;;5095273;28;20282;-47
2020/12/02 00:20:57;;;;;;;;;;;27.50;42.00;;;;;;5094912;28;19912;-47
2020/12/02 00:23:22;;;;;;;;;;;27.60;42.10;;;;;;5094939;28;19912;-47
2020/12/02 00:25:47;;;;;;;;;;;27.70;42.20;;;;;;5095176;28;19918;-47
2020/12/02 00:28:13;;;;;;;;;;;27.70;42.20;;;;;;5095114;28;19920;-47
2020/12/02 00:30:39;;;;;;;;;;;27.70;42.30;;;;;;5094739;28;19909;-47
2020/12/02 00:33:05;;;;;;;;;;;27.70;42.40;;;;;;5094996;28;19952;-47
2020/12/02 00:35:31;;;;;;;;;;;27.80;42.50;;;;;;5094631;28;19908;-47
2020/12/02 00:37:56;;;;;;;;;;;27.80;42.60;;;;;;5094865;28;19938;-47
2020/12/02 00:40:21;;;;;;;;;;;27.80;42.60;;;;;;5094551;28;19950;-48
2020/12/02 00:42:47;;;;;;;;;;;27.80;42.70;;;;;;5094874;28;19956;-47
2020/12/02 00:45:12;;;;;;;;;;;27.80;42.70;;;;;;5093167;28;20298;-47
2020/12/02 00:47:38;;;;;;;;;;;27.80;42.80;;;;;;5094352;28;19920;-47
2020/12/02 00:50:06;;;;;;;;;;;27.80;42.80;;;;;;5093225;28;19915;-48
2020/12/02 00:52:32;;;;;;;;;;;27.80;42.90;;;;;;5094361;28;19934;-47
2020/12/02 00:54:57;;;;;;;;;;;27.80;42.90;;;;;;5094581;28;20278;-47
2020/12/02 00:57:33;;;;;;;;;;;27.80;43.00;;;;;;5094347;28;20389;-47
2020/12/02 00:59:59;;;;;;;;;;;27.80;43.00;;;;;;5093313;28;19908;-47
2020/12/02 01:02:43;;;;;;;;;;;27.80;43.00;;;;;;5094070;28;19930;-47
2020/12/02 01:05:09;;;;;;;;;;;27.80;43.10;;;;;;5094139;28;19912;-48
2020/12/02 01:07:37;;;;;;;;;;;27.80;43.10;;;;;;5093003;28;20011;-47
2020/12/02 01:10:03;;;;;;;;;;;27.70;43.10;;;;;;5093954;28;19948;-47
2020/12/02 01:12:28;;;;;;;;;;;27.70;43.10;;;;;;5093974;28;19912;-47
2020/12/02 01:14:54;;;;;;;;;;;27.70;43.10;;;;;;5092655;28;19909;-47
2020/12/02 01:17:19;;;;;;;;;;;27.80;43.20;;;;;;5094217;28;19959;-47
2020/12/02 01:19:45;;;;;;;;;;;27.70;43.20;;;;;;5093807;28;20032;-47
2020/12/02 01:22:18;;;;;;;;;;;27.70;43.10;;;;;;5093894;28;19909;-48
2020/12/02 01:24:55;;;;;;;;;;;27.70;43.20;;;;;;5094032;28;19912;-47
2020/12/02 01:27:20;;;;;;;;;;;27.70;43.20;;;;;;5092739;28;19923;-48
2020/12/02 01:29:46;;;;;;;;;;;27.70;43.20;;;;;;5093949;28;19912;-47
2020/12/02 01:32:12;;;;;;;;;;;27.70;43.20;;;;;;5092310;28;19947;-47
2020/12/02 01:34:37;;;;;;;;;;;27.70;43.20;;;;;;5093899;28;19909;-47
2020/12/02 01:37:06;;;;;;;;;;;27.70;43.20;;;;;;5093834;28;20293;-47
2020/12/02 01:39:32;;;;;;;;;;;27.70;43.20;;;;;;5093749;28;19916;-47
2020/12/02 01:41:58;;;;;;;;;;;27.70;43.20;;;;;;5093794;28;19909;-47
2020/12/02 01:44:23;;;;;;;;;;;27.70;43.20;;;;;;5093546;28;19912;-47
2020/12/02 01:46:58;;;;;;;;;;;27.70;43.20;;;;;;5093377;28;19967;-47
2020/12/02 01:49:28;;;;;;;;;;;27.70;43.20;;;;;;5092129;28;20400;-47
2020/12/02 01:52:00;;;;;;;;;;;27.70;43.20;;;;;;5092135;28;19981;-47
2020/12/02 01:54:28;;;;;;;;;;;27.70;43.20;;;;;;5093522;28;19908;-48
2020/12/02 01:56:59;;;;;;;;;;;27.70;43.20;;;;;;5092349;28;19951;-47
2020/12/02 01:59:34;;;;;;;;;;;27.70;43.30;;;;;;5093246;28;19912;-47
2020/12/02 02:02:05;;;;;;;;;;;27.70;43.20;;;;;;5093465;28;19912;-47
2020/12/02 02:04:42;;;;;;;;;;;27.70;43.30;;;;;;5093293;28;19908;-48
2020/12/02 02:07:16;;;;;;;;;;;27.70;43.30;;;;;;5091793;28;19920;-51
2020/12/02 02:09:42;;;;;;;;;;;27.70;43.40;;;;;;5093433;28;19915;-49
2020/12/02 02:12:34;;;;;;;;;;;27.70;43.30;;;;;;5093378;28;19961;-47
2020/12/02 02:15:16;;;;;;;;;;;27.70;43.30;;;;;;5069199;28;19912;-47
2020/12/02 02:17:41;;;;;;;;;;;27.70;43.30;;;;;;5093056;28;19909;-47
2020/12/02 02:20:07;;;;;;;;;;;27.70;43.30;;;;;;5093127;28;19912;-48
2020/12/02 02:22:32;;;;;;;;;;;27.70;43.30;;;;;;5093243;28;19914;-47
2020/12/02 02:24:58;;;;;;;;;;;27.60;43.30;;;;;;5093151;28;20251;-47
2020/12/02 02:27:24;;;;;;;;;;;27.70;43.40;;;;;;5091601;28;19916;-47
2020/12/02 02:29:49;;;;;;;;;;;27.60;43.30;;;;;;5091976;28;19908;-47
2020/12/02 02:32:19;;;;;;;;;;;27.60;43.30;;;;;;5093084;28;19918;-47
2020/12/02 02:34:48;;;;;;;;;;;27.60;43.30;;;;;;5093110;28;19949;-47
2020/12/02 02:37:14;;;;;;;;;;;27.60;43.30;;;;;;5092825;28;19908;-47
2020/12/02 02:39:39;;;;;;;;;;;27.60;43.40;;;;;;5092720;28;19934;-47
2020/12/02 02:42:06;;;;;;;;;;;27.60;43.30;;;;;;5092712;28;19913;-47
2020/12/02 02:44:32;;;;;;;;;;;27.60;43.30;;;;;;5092776;28;19999;-47
2020/12/02 02:46:57;;;;;;;;;;;27.60;43.30;;;;;;5092871;28;20007;-47
2020/12/02 02:49:23;;;;;;;;;;;27.60;43.40;;;;;;5092916;28;19908;-47
2020/12/02 02:51:48;;;;;;;;;;;27.60;43.40;;;;;;5092724;28;19915;-47
2020/12/02 02:54:14;;;;;;;;;;;27.60;43.40;;;;;;5092595;28;19908;-47
2020/12/02 02:56:39;;;;;;;;;;;27.60;43.40;;;;;;5091444;28;19953;-47
2020/12/02 02:59:05;;;;;;;;;;;27.60;43.40;;;;;;5092959;28;20397;-47
2020/12/02 03:01:30;;;;;;;;;;;27.60;43.40;;;;;;5092838;28;19912;-47
2020/12/02 03:03:56;;;;;;;;;;;27.60;43.40;;;;;;5091393;28;19951;-47
2020/12/02 03:06:21;;;;;;;;;;;27.60;43.40;;;;;;5092481;28;19926;-48
2020/12/02 03:08:47;;;;;;;;;;;27.60;43.40;;;;;;5092809;28;19965;-47
2020/12/02 03:11:13;;;;;;;;;;;27.50;43.30;;;;;;5091283;28;19909;-47
2020/12/02 03:13:41;;;;;;;;;;;27.60;43.40;;;;;;5092799;28;20278;-47
2020/12/02 03:16:11;;;;;;;;;;;27.60;43.40;;;;;;5092785;28;20340;-47
2020/12/02 03:18:37;;;;;;;;;;;27.60;43.40;;;;;;5092689;28;19986;-47
2020/12/02 03:21:04;;;;;;;;;;;27.50;43.40;;;;;;5092491;28;20374;-47
2020/12/02 03:23:29;;;;;;;;;;;27.50;43.30;;;;;;5091235;28;20007;-47
2020/12/02 03:25:55;;;;;;;;;;;27.50;43.40;;;;;;5092316;28;19994;-47
2020/12/02 03:28:20;;;;;;;;;;;27.50;43.40;;;;;;5092562;28;19923;-47
2020/12/02 03:30:46;;;;;;;;;;;27.50;43.40;;;;;;5093887;28;19920;-47
2020/12/02 03:33:12;;;;;;;;;;;27.50;43.40;;;;;;5096244;28;20304;-47
2020/12/02 03:35:37;;;;;;;;;;;27.50;43.40;;;;;;5094661;28;19912;-47
2020/12/02 03:38:03;;;;;;;;;;;27.50;43.40;;;;;;5095814;28;19954;-47
2020/12/02 03:40:28;;;;;;;;;;;27.50;43.40;;;;;;5095779;28;19908;-47
2020/12/02 03:42:54;;;;;;;;;;;27.50;43.40;;;;;;5096061;28;19916;-47
2020/12/02 03:45:20;;;;;;;;;;;27.50;43.40;;;;;;5095651;28;19908;-47
2020/12/02 03:47:45;;;;;;;;;;;27.50;43.40;;;;;;5095780;28;20002;-47
2020/12/02 03:50:12;;;;;;;;;;;27.50;43.40;;;;;;5095523;28;19916;-47
2020/12/02 03:52:38;;;;;;;;;;;27.50;43.40;;;;;;5095542;28;19912;-48
2020/12/02 03:55:03;;;;;;;;;;;27.50;43.40;;;;;;5095704;28;19962;-47
2020/12/02 03:57:29;;;;;;;;;;;27.50;43.30;;;;;;5095791;28;20278;-48
2020/12/02 03:59:54;;;;;;;;;;;27.40;43.30;;;;;;5095456;28;20262;-48
2020/12/02 04:02:20;;;;;;;;;;;27.40;43.20;;;;;;5095575;28;19909;-50
2020/12/02 04:04:45;;;;;;;;;;;27.40;43.20;;;;;;5095308;28;19908;-47
2020/12/02 04:07:11;;;;;;;;;;;27.40;43.10;;;;;;5095071;28;19924;-51
2020/12/02 04:09:36;;;;;;;;;;;27.40;43.10;;;;;;5095077;28;19923;-49
2020/12/02 04:12:02;;;;;;;;;;;27.40;43.10;;;;;;5095748;28;19909;-49
2020/12/02 04:14:27;;;;;;;;;;;27.40;43.10;;;;;;5095352;28;20320;-48
2020/12/02 04:16:52;;;;;;;;;;;27.40;43.10;;;;;;5095041;28;19908;-48
2020/12/02 04:19:18;;;;;;;;;;;27.40;43.10;;;;;;5095259;28;19908;-48
2020/12/02 04:21:43;;;;;;;;;;;27.40;43.10;;;;;;5095016;28;19908;-47
2020/12/02 04:24:09;;;;;;;;;;;27.40;43.00;;;;;;5095154;28;19962;-47
2020/12/02 04:26:34;;;;;;;;;;;27.40;43.00;;;;;;5094933;28;19923;-48
2020/12/02 04:29:00;;;;;;;;;;;27.40;43.00;;;;;;5094799;28;20396;-47
2020/12/02 04:31:25;;;;;;;;;;;27.40;43.00;;;;;;5095055;28;19914;-48
2020/12/02 04:33:51;;;;;;;;;;;27.40;43.00;;;;;;5094935;28;20243;-47
2020/12/02 04:36:16;;;;;;;;;;;27.40;42.90;;;;;;5094696;28;19994;-47
2020/12/02 04:38:42;;;;;;;;;;;27.40;42.90;;;;;;5094862;28;19908;-48
2020/12/02 04:41:10;;;;;;;;;;;27.30;42.80;;;;;;5094544;28;20318;-48
2020/12/02 04:43:39;;;;;;;;;;;27.40;42.80;;;;;;5093221;28;19908;-48
2020/12/02 04:46:13;;;;;;;;;;;27.40;42.80;;;;;;5094475;28;19908;-48
2020/12/02 04:48:39;;;;;;;;;;;27.40;42.80;;;;;;5094693;28;19916;-47
2020/12/02 04:51:05;;;;;;;;;;;27.30;42.70;;;;;;5094317;28;19912;-47
2020/12/02 04:53:31;;;;;;;;;;;27.30;42.70;;;;;;5092989;28;19915;-47
2020/12/02 04:55:56;;;;;;;;;;;27.30;42.70;;;;;;5094217;28;19913;-47
2020/12/02 04:58:21;;;;;;;;;;;27.30;42.70;;;;;;5094237;28;19912;-48
2020/12/02 05:00:47;;;;;;;;;;;27.30;42.60;;;;;;5094185;28;19957;-48
2020/12/02 05:03:13;;;;;;;;;;;27.30;42.60;;;;;;5094039;28;19913;-47
2020/12/02 05:05:38;;;;;;;;;;;27.30;42.60;;;;;;5093991;28;19974;-48
2020/12/02 05:08:22;;;;;;;;;;;27.30;42.50;;;;;;5094211;28;20358;-47
2020/12/02 05:10:48;;;;;;;;;;;27.30;42.60;;;;;;5094011;28;19912;-49
2020/12/02 05:13:13;;;;;;;;;;;27.30;42.60;;;;;;5094153;28;19912;-48
2020/12/02 05:15:39;;;;;;;;;;;27.30;42.60;;;;;;5093843;28;19908;-47
2020/12/02 05:18:13;;;;;;;;;;;27.30;42.60;;;;;;5092711;28;19914;-47
2020/12/02 05:20:39;;;;;;;;;;;27.30;42.50;;;;;;5093800;28;20313;-47
2020/12/02 05:23:11;;;;;;;;;;;27.30;42.50;;;;;;5092781;28;19908;-47
2020/12/02 05:25:37;;;;;;;;;;;27.30;42.50;;;;;;5093986;28;19938;-47
2020/12/02 05:28:04;;;;;;;;;;;27.30;43.10;;;;;;5093905;28;19916;-48
2020/12/02 05:30:30;;;;;;;;;;;27.30;42.50;;;;;;5093941;28;19908;-47
2020/12/02 05:33:11;;;;;;;;;;;27.30;42.40;;;;;;5093871;28;19908;-47
2020/12/02 05:35:37;;;;;;;;;;;27.30;42.50;;;;;;5093496;28;19914;-47
2020/12/02 05:38:03;;;;;;;;;;;27.30;42.40;;;;;;5093764;28;19908;-47
2020/12/02 05:40:28;;;;;;;;;;;27.30;42.40;;;;;;5092344;28;20370;-47
2020/12/02 05:42:56;;;;;;;;;;;27.30;42.40;;;;;;5092293;28;19913;-48
2020/12/02 05:45:26;;;;;;;;;;;27.30;42.30;;;;;;5093589;28;19908;-47
2020/12/02 05:47:52;;;;;;;;;;;27.30;42.30;;;;;;5092351;28;19916;-47
2020/12/02 05:50:18;;;;;;;;;;;27.30;42.30;;;;;;5093253;28;19908;-47
2020/12/02 05:52:44;;;;;;;;;;;27.30;42.30;;;;;;5093037;28;19953;-48
2020/12/02 05:55:10;;;;;;;;;;;27.20;42.20;;;;;;5093392;28;19912;-48
2020/12/02 05:57:40;;;;;;;;;;;27.20;42.10;;;;;;5093460;28;19962;-47
2020/12/02 06:00:05;;;;;;;;;;;27.20;42.20;;;;;;5093369;28;19909;-48
2020/12/02 06:02:31;;;;;;;;;;;27.20;42.20;;;;;;5093234;28;19999;-47
2020/12/02 06:04:56;;;;;;;;;;;27.20;42.20;;;;;;5092009;28;19916;-50
2020/12/02 06:07:22;;;;;;;;;;;27.20;42.10;;;;;;5093011;28;19924;-47
2020/12/02 06:09:49;;;;;;;;;;;27.20;42.10;;;;;;5093344;28;19908;-48
2020/12/02 06:12:15;;;;;;;;;;;27.20;42.10;;;;;;5093463;28;19915;-49
2020/12/02 06:14:41;;;;;;;;;;;27.20;42.10;;;;;;5093172;28;19908;-48
2020/12/02 06:17:08;;;;;;;;;;;27.20;42.00;;;;;;5093193;28;19973;-49
2020/12/02 06:20:03;;;;;;;;;;;27.20;42.00;;;;;;5093295;28;19915;-47
2020/12/02 06:22:51;;;;;;;;;;;27.20;42.00;;;;;;5079705;28;19909;-48
2020/12/02 06:25:35;;;;;;;;;;;27.20;42.10;;;;;;5084554;28;19916;-48
2020/12/02 06:28:01;;;;;;;;;;;27.20;42.00;;;;;;5093096;28;19916;-47
2020/12/02 06:30:26;;;;;;;;;;;27.20;42.00;;;;;;5093261;28;20007;-48
2020/12/02 06:32:58;;;;;;;;;;;27.20;41.90;;;;;;5092816;28;19987;-49
2020/12/02 06:35:24;;;;;;;;;;;27.20;42.00;;;;;;5092922;28;20003;-48
2020/12/02 06:38:10;;;;;;;;;;;27.20;41.90;;;;;;5093031;28;20012;-47
2020/12/02 06:40:35;;;;;;;;;;;24.90;33.70;;;;;;5093064;28;19912;-47
2020/12/02 06:43:03;;;;;;;;;;;23.10;34.30;;;;;;5092661;28;19961;-46
2020/12/02 06:45:30;;;;;;;;;;;21.40;35.10;;;;;;5093003;28;19973;-46
2020/12/02 06:48:00;;;;;;;;;;;21.00;35.40;;;;;;5092581;28;19920;-46
2020/12/02 06:50:33;;;;;;;;;;;21.60;38.30;;;;;;5092662;28;20380;-46
2020/12/02 06:53:12;;;;;;;;;;;22.90;39.30;;;;;;5092993;28;19957;-46
2020/12/02 06:55:38;;;;;;;;;;;23.90;39.10;;;;;;5092564;28;20358;-46
2020/12/02 06:58:05;;;;;;;;;;;24.70;38.30;;;;;;5092641;28;19908;-46
2020/12/02 07:00:38;;;;;;;;;;;25.30;37.80;;;;;;5091316;28;19919;-46
2020/12/02 07:03:05;;;;;;;;;;;25.70;37.20;;;;;;5091120;28;19908;-46
2020/12/02 07:05:32;;;;;;;;;;;26.00;36.80;;;;;;5093713;28;20456;-47
2020/12/02 07:08:01;;;;;;;;;;;26.20;37.00;;;;;;5095140;28;20042;-46
2020/12/02 07:10:27;;;;;;;;;;;26.40;36.30;;;;;;5096326;28;19912;-45
2020/12/02 07:12:53;;;;;;;;;;;26.50;36.40;;;;;;5096156;28;19915;-46
2020/12/02 07:15:18;;;;;;;;;;;26.60;36.60;;;;;;5095365;28;19915;-46
2020/12/02 07:17:44;;;;;;;;;;;26.70;37.70;;;;;;5096511;28;20376;-46
2020/12/02 07:20:12;;;;;;;;;;;26.80;39.30;;;;;;5096063;28;19962;-52
2020/12/02 07:22:38;;;;;;;;;;;26.70;40.60;;;;;;5096454;28;19912;-47
2020/12/02 07:25:05;;;;;;;;;;;26.70;41.40;;;;;;5096232;28;19916;-47
2020/12/02 07:27:30;;;;;;;;;;;26.80;42.90;;;;;;5095895;28;20724;-48
2020/12/02 07:29:59;;;;;;;;;;;26.80;42.80;;;;;;5096316;28;19912;-48
2020/12/02 07:32:25;;;;;;;;;;;26.90;43.70;;;;;;5096167;28;19954;-49
2020/12/02 07:34:58;;;;;;;;;;;26.90;44.10;;;;;;5096135;28;19947;-49
2020/12/02 07:37:24;;;;;;;;;;;26.90;46.10;;;;;;5095837;28;19908;-55
2020/12/02 07:39:59;;;;;;;;;;;26.90;46.40;;;;;;5095946;28;19908;-51
2020/12/02 07:42:31;;;;;;;;;;;26.90;45.70;;;;;;5095976;28;19938;-51
2020/12/02 07:45:08;;;;;;;;;;;26.90;45.60;;;;;;5094865;28;19951;-49
2020/12/02 07:47:34;;;;;;;;;;;27.00;45.50;;;;;;5095636;28;20011;-50
2020/12/02 07:50:10;;;;;;;;;;;27.00;45.20;;;;;;5094276;28;20019;-50
2020/12/02 07:52:37;;;;;;;;;;;27.00;45.10;;;;;;5094539;28;19908;-53
2020/12/02 07:55:02;;;;;;;;;;;27.00;45.00;;;;;;5094527;28;19915;-46
2020/12/02 07:57:28;;;;;;;;;;;27.00;44.90;;;;;;5095313;28;19908;-49
2020/12/02 08:00:20;;;;;;;;;;;27.00;44.60;;;;;;5094521;28;19908;-54
2020/12/02 08:02:46;;;;;;;;;;;27.00;45.10;;;;;;5091951;28;19912;-61
2020/12/02 08:05:34;;;;;;;;;;;26.90;45.70;;;;;;5095592;28;20013;-58
2020/12/02 08:08:00;;;;;;;;;;;26.80;45.60;;;;;;5086716;28;19975;-58
2020/12/02 08:10:30;;;;;;;;;;;26.90;45.40;;;;;;5095339;28;19912;-53
2020/12/02 08:12:56;;;;;;;;;;;27.00;45.20;;;;;;5095685;28;20002;-57
2020/12/02 08:15:22;;;;;;;;;;;27.10;45.10;;;;;;5095578;28;19951;-52
2020/12/02 08:18:11;;;;;;;;;;;27.20;45.00;;;;;;5093432;28;19912;-49
2020/12/02 08:20:36;;;;;;;;;;;27.20;44.80;;;;;;5095327;28;20393;-68
2020/12/02 08:23:06;;;;;;;;;;;27.20;44.80;;;;;;5095158;28;19919;-61
2020/12/02 08:25:33;;;;;;;;;;;27.30;45.30;;;;;;5095193;28;19955;-64
2020/12/02 08:27:59;;;;;;;;;;;27.30;44.60;;;;;;5094730;28;20419;-65
2020/12/02 08:30:25;;;;;;;;;;;27.40;44.50;;;;;;5093928;28;19919;-65
2020/12/02 08:33:11;;;;;;;;;;;27.40;44.40;;;;;;5094984;28;19908;-61
2020/12/02 08:35:38;;;;;;;;;;;27.40;44.40;;;;;;5094146;28;19914;-62
2020/12/02 08:38:03;;;;;;;;;;;27.50;44.40;;;;;;5095277;28;19908;-66
2020/12/02 08:40:31;;;;;;;;;;;27.50;44.50;;;;;;5094625;28;19919;-62
2020/12/02 08:43:14;;;;;;;;;;;27.50;44.50;;;;;;5094489;28;19954;-62
2020/12/02 08:45:46;;;;;;;;;;;27.50;44.60;;;;;;5094558;28;20358;-63
2020/12/02 08:48:11;;;;;;;;;;;27.50;44.60;;;;;;5093066;28;20328;-61
2020/12/02 08:50:37;;;;;;;;;;;27.60;44.70;;;;;;5093471;28;19924;-61
2020/12/02 08:53:02;;;;;;;;;;;27.60;44.80;;;;;;5094412;28;19959;-65
2020/12/02 08:55:28;;;;;;;;;;;27.60;44.80;;;;;;5094547;28;20021;-59
2020/12/02 08:57:53;;;;;;;;;;;27.60;44.80;;;;;;5094551;28;19908;-63
2020/12/02 09:00:19;;;;;;;;;;;27.70;44.90;;;;;;5094442;28;19969;-55
2020/12/02 09:02:45;;;;;;;;;;;27.70;44.90;;;;;;5094040;28;19943;-61
2020/12/02 09:05:11;;;;;;;;;;;27.70;44.90;;;;;;5094393;28;19908;-51
2020/12/02 09:07:36;;;;;;;;;;;27.70;44.90;;;;;;5093765;28;19951;-50
2020/12/02 09:10:02;;;;;;;;;;;27.70;45.00;;;;;;5094196;28;19947;-56
2020/12/02 09:12:27;;;;;;;;;;;27.70;45.00;;;;;;5094381;28;19922;-58
2020/12/02 09:14:53;;;;;;;;;;;27.70;45.00;;;;;;5094190;28;20366;-59
2020/12/02 09:17:18;;;;;;;;;;;27.70;45.00;;;;;;5094200;28;20274;-50
2020/12/02 09:19:44;;;;;;;;;;;27.70;45.00;;;;;;5093792;28;19909;-53
2020/12/02 09:22:09;;;;;;;;;;;27.70;45.10;;;;;;5094099;28;19923;-53
2020/12/02 09:24:35;;;;;;;;;;;27.60;45.00;;;;;;5093667;28;20455;-54
2020/12/02 09:27:00;;;;;;;;;;;27.70;45.00;;;;;;5093680;28;19916;-52
2020/12/02 09:29:26;;;;;;;;;;;27.70;44.90;;;;;;5093068;28;19909;-56
2020/12/02 09:31:51;;;;;;;;;;;27.80;44.90;;;;;;5093582;28;19915;-52
2020/12/02 09:34:18;;;;;;;;;;;27.80;44.80;;;;;;5093579;28;19958;-56
2020/12/02 09:36:44;;;;;;;;;;;27.80;44.70;;;;;;5093789;28;20341;-54
2020/12/02 09:39:10;;;;;;;;;;;27.80;44.70;;;;;;5093623;28;19916;-52
2020/12/02 09:41:45;;;;;;;;;;;27.80;44.20;;;;;;5093751;28;19912;-57
2020/12/02 09:44:16;;;;;;;;;;;27.40;32.30;;;;;;5093460;28;19947;-58
2020/12/02 09:46:43;;;;;;;;;;;27.00;40.00;;;;;;5093382;28;19908;-59
2020/12/02 09:49:09;;;;;;;;;;;27.10;41.50;;;;;;5092003;28;19908;-60
2020/12/02 09:51:34;;;;;;;;;;;27.20;41.80;;;;;;5093604;28;19912;-60
2020/12/02 09:54:01;;;;;;;;;;;27.40;41.90;;;;;;5093161;28;19909;-67
2020/12/02 09:56:28;;;;;;;;;;;27.50;41.90;;;;;;5093239;28;19915;-57
2020/12/02 09:58:57;;;;;;;;;;;27.60;41.90;;;;;;5093349;28;19915;-58
2020/12/02 10:01:33;;;;;;;;;;;27.60;42.00;;;;;;5093361;28;19915;-56
2020/12/02 10:04:17;;;;;;;;;;;27.70;42.10;;;;;;5092061;28;19908;-60
2020/12/02 10:07:03;;;;;;;;;;;27.70;42.20;;;;;;5092798;28;19942;-58
2020/12/02 10:09:32;;;;;;;;;;;27.70;42.20;;;;;;5082103;28;19920;-57
2020/12/02 10:12:16;;;;;;;;;;;27.70;42.30;;;;;;5093076;28;19951;-56
2020/12/02 10:14:52;;;;;;;;;;;27.70;42.30;;;;;;5092851;28;19909;-51
2020/12/02 10:17:24;;;;;;;;;;;27.60;40.50;;;;;;5091914;28;19919;-54
2020/12/02 10:20:08;;;;;;;;;;;27.40;40.90;;;;;;5093188;28;19912;-60
2020/12/02 10:22:42;;;;;;;;;;;27.00;31.10;;;;;;5093174;28;19908;-50
2020/12/02 10:25:16;;;;;;;;;;;26.10;35.30;;;;;;5093065;28;20331;-53
2020/12/02 10:27:42;;;;;;;;;;;26.20;38.60;;;;;;5091387;28;20010;-54
2020/12/02 10:30:17;;;;;;;;;;;26.60;39.60;;;;;;5092806;28;19948;-53
2020/12/02 10:32:49;;;;;;;;;;;26.90;39.80;;;;;;5092713;28;19908;-54
2020/12/02 10:35:15;;;;;;;;;;;27.10;39.70;;;;;;5091459;28;20066;-51
2020/12/02 10:37:41;;;;;;;;;;;27.30;39.80;;;;;;5092960;28;19995;-60
2020/12/02 10:40:06;;;;;;;;;;;27.40;39.80;;;;;;5094826;28;20386;-49
2020/12/02 10:42:42;;;;;;;;;;;27.40;40.10;;;;;;5097060;28;20377;-50
2020/12/02 10:45:20;;;;;;;;;;;27.40;40.10;;;;;;5095547;28;19919;-51
2020/12/02 10:47:52;;;;;;;;;;;27.40;40.10;;;;;;5096947;28;20023;-52
2020/12/02 10:50:18;;;;;;;;;;;27.50;40.30;;;;;;5096964;28;19920;-57
2020/12/02 10:52:48;;;;;;;;;;;27.60;40.20;;;;;;5096712;28;19908;-52
2020/12/02 10:55:13;;;;;;;;;;;27.60;40.20;;;;;;5096870;28;19908;-50
2020/12/02 10:57:39;;;;;;;;;;;27.60;40.40;;;;;;5096586;28;19908;-55
2020/12/02 11:00:05;;;;;;;;;;;27.70;40.50;;;;;;5095624;28;19942;-56
2020/12/02 11:02:30;;;;;;;;;;;27.70;40.50;;;;;;5096468;28;19931;-50
2020/12/02 11:04:56;;;;;;;;;;;27.70;40.70;;;;;;5096432;28;20285;-51
2020/12/02 11:07:21;;;;;;;;;;;27.80;40.70;;;;;;5096072;28;19926;-51
2020/12/02 11:09:55;;;;;;;;;;;27.80;40.80;;;;;;5096592;28;19919;-49
2020/12/02 11:12:27;;;;;;;;;;;27.80;40.80;;;;;;5096505;28;19912;-52
2020/12/02 11:15:25;;;;;;;;;;;27.80;40.80;;;;;;5095161;28;19912;-50
2020/12/02 11:17:59;;;;;;;;;;;27.80;41.00;;;;;;5061933;28;19921;-58
2020/12/02 11:20:25;;;;;;;;;;;27.80;41.00;;;;;;5095906;28;19912;-59
2020/12/02 11:23:01;;;;;;;;;;;27.80;41.10;;;;;;5095131;28;19916;-58
2020/12/02 11:25:39;;;;;;;;;;;27.80;41.20;;;;;;5094940;28;20038;-51
2020/12/02 11:28:05;;;;;;;;;;;27.80;41.10;;;;;;5095950;28;20320;-51
2020/12/02 11:30:31;;;;;;;;;;;27.80;41.20;;;;;;5095785;28;19912;-55
2020/12/02 11:33:00;;;;;;;;;;;27.80;41.20;;;;;;5096172;28;19915;-55
2020/12/02 11:35:25;;;;;;;;;;;27.80;41.20;;;;;;5095763;28;19961;-55
2020/12/02 11:37:56;;;;;;;;;;;27.80;41.30;;;;;;5096029;28;19912;-50
2020/12/02 11:40:25;;;;;;;;;;;27.60;39.70;;;;;;5094670;28;19931;-48
2020/12/02 11:42:51;;;;;;;;;;;27.40;41.50;;;;;;5094320;28;19916;-51
2020/12/02 11:45:18;;;;;;;;;;;27.30;41.60;;;;;;5095809;28;20037;-51
2020/12/02 11:47:59;;;;;;;;;;;27.40;41.70;;;;;;5095502;28;19916;-53
2020/12/02 11:50:29;;;;;;;;;;;27.60;41.60;;;;;;5095370;28;19991;-54
2020/12/02 11:52:54;;;;;;;;;;;27.70;41.50;;;;;;5095097;28;20004;-51
2020/12/02 11:55:19;;;;;;;;;;;27.70;41.40;;;;;;5095772;28;19991;-54
2020/12/02 11:57:47;;;;;;;;;;;27.80;41.30;;;;;;5095326;28;19954;-49
2020/12/02 12:00:12;;;;;;;;;;;27.80;41.90;;;;;;5095320;28;19912;-55
2020/12/02 12:03:04;;;;;;;;;;;27.90;41.30;;;;;;5095431;28;19919;-55
2020/12/02 12:05:45;;;;;;;;;;;27.90;41.40;;;;;;5071285;28;20304;-61
2020/12/02 12:08:18;;;;;;;;;;;27.90;41.40;;;;;;5093819;28;20388;-46
2020/12/02 12:10:46;;;;;;;;;;;27.80;41.40;;;;;;5095002;28;20299;-48
2020/12/02 12:13:16;;;;;;;;;;;27.80;41.50;;;;;;5095078;28;19920;-48
2020/12/02 12:15:42;;;;;;;;;;;27.80;41.50;;;;;;5094264;28;19916;-48
2020/12/02 12:18:22;;;;;;;;;;;27.70;41.20;;;;;;5095179;28;19912;-50
2020/12/02 12:20:50;;;;;;;;;;;27.80;41.40;;;;;;5094962;28;19964;-49
2020/12/02 12:23:35;;;;;;;;;;;27.80;41.40;;;;;;5095125;28;19908;-50
2020/12/02 12:26:00;;;;;;;;;;;27.90;41.40;;;;;;5095305;28;19908;-52
2020/12/02 12:28:27;;;;;;;;;;;27.90;41.40;;;;;;5093769;28;20388;-51
2020/12/02 12:30:54;;;;;;;;;;;27.90;41.30;;;;;;5095094;28;19909;-56
2020/12/02 12:33:28;;;;;;;;;;;28.00;41.50;;;;;;5093443;28;20286;-54
2020/12/02 12:35:54;;;;;;;;;;;27.90;41.40;;;;;;5093735;28;19914;-53
2020/12/02 12:38:37;;;;;;;;;;;28.00;41.50;;;;;;5094631;28;19915;-51
2020/12/02 12:41:22;;;;;;;;;;;28.00;41.50;;;;;;5094912;28;19931;-58
2020/12/02 12:43:51;;;;;;;;;;;28.00;41.60;;;;;;5094027;28;19912;-55
2020/12/02 12:46:18;;;;;;;;;;;28.00;41.60;;;;;;5094824;28;19950;-55
2020/12/02 12:48:43;;;;;;;;;;;28.00;41.60;;;;;;5093336;28;19969;-58
2020/12/02 12:51:09;;;;;;;;;;;28.00;41.60;;;;;;5093122;28;19912;-57
2020/12/02 12:53:34;;;;;;;;;;;28.00;41.60;;;;;;5093312;28;19908;-55
2020/12/02 12:56:00;;;;;;;;;;;28.00;41.60;;;;;;5094567;28;19909;-59
2020/12/02 12:58:25;;;;;;;;;;;28.00;41.60;;;;;;5094257;28;19947;-53
2020/12/02 13:00:51;;;;;;;;;;;28.10;41.70;;;;;;5092748;28;19908;-51
2020/12/02 13:03:19;;;;;;;;;;;28.10;41.70;;;;;;5094065;28;19908;-58
2020/12/02 13:05:57;;;;;;;;;;;28.10;41.90;;;;;;5093153;28;20068;-48
2020/12/02 13:08:26;;;;;;;;;;;27.80;39.80;;;;;;5092083;28;20386;-48
2020/12/02 13:10:53;;;;;;;;;;;27.40;40.50;;;;;;5093165;28;20003;-50
2020/12/02 13:13:27;;;;;;;;;;;27.30;40.50;;;;;;5093054;28;19912;-50
2020/12/02 13:15:52;;;;;;;;;;;27.10;40.90;;;;;;5094340;28;19908;-50
2020/12/02 13:18:37;;;;;;;;;;;27.10;40.80;;;;;;5094105;28;19958;-50
2020/12/02 13:21:06;;;;;;;;;;;27.20;40.80;;;;;;5093904;28;20346;-50
2020/12/02 13:23:36;;;;;;;;;;;27.20;40.40;;;;;;5093798;28;19915;-51
2020/12/02 13:26:20;;;;;;;;;;;27.20;40.00;;;;;;5094163;28;20003;-50
2020/12/02 13:28:50;;;;;;;;;;;27.30;40.00;;;;;;5093708;28;20030;-51
2020/12/02 13:31:19;;;;;;;;;;;27.30;39.60;;;;;;5093974;28;19954;-50
2020/12/02 13:33:46;;;;;;;;;;;27.20;39.20;;;;;;5093688;28;19908;-50
2020/12/02 13:36:14;;;;;;;;;;;27.20;39.20;;;;;;5093853;28;19948;-50
2020/12/02 13:38:40;;;;;;;;;;;27.20;39.10;;;;;;5093553;28;19908;-51
2020/12/02 13:41:05;;;;;;;;;;;27.20;38.90;;;;;;5093883;28;19933;-49
2020/12/02 13:43:31;;;;;;;;;;;27.20;38.90;;;;;;5092220;28;20342;-49
2020/12/02 13:45:56;;;;;;;;;;;27.20;38.80;;;;;;5093464;28;20374;-50
2020/12/02 13:48:22;;;;;;;;;;;27.20;38.70;;;;;;5093662;28;19916;-50
2020/12/02 13:50:48;;;;;;;;;;;27.20;38.60;;;;;;5093637;28;19919;-52
2020/12/02 13:53:16;;;;;;;;;;;27.20;38.60;;;;;;5093693;28;19916;-52
2020/12/02 13:55:47;;;;;;;;;;;27.20;38.60;;;;;;5093561;28;19908;-52
2020/12/02 13:58:12;;;;;;;;;;;27.20;38.60;;;;;;5092328;28;19912;-50
2020/12/02 14:00:56;;;;;;;;;;;27.20;38.60;;;;;;5093375;28;20374;-52
2020/12/02 14:03:25;;;;;;;;;;;27.20;38.50;;;;;;5093332;28;19928;-51
2020/12/02 14:05:50;;;;;;;;;;;27.20;38.50;;;;;;5093196;28;19923;-50
2020/12/02 14:08:16;;;;;;;;;;;27.20;38.50;;;;;;5093154;28;19916;-52
2020/12/02 14:10:41;;;;;;;;;;;27.10;38.40;;;;;;5093448;28;19999;-50
2020/12/02 14:13:09;;;;;;;;;;;27.20;38.40;;;;;;5093389;28;20308;-50
2020/12/02 14:15:35;;;;;;;;;;;27.10;38.30;;;;;;5092936;28;19911;-50
2020/12/02 14:18:01;;;;;;;;;;;27.10;38.30;;;;;;5093228;28;19914;-52
2020/12/02 14:20:26;;;;;;;;;;;27.10;38.30;;;;;;5092944;28;20006;-52
2020/12/02 14:22:55;;;;;;;;;;;27.10;38.30;;;;;;5093322;28;19908;-51
2020/12/02 14:25:20;;;;;;;;;;;27.10;38.30;;;;;;5093395;28;20370;-53